Hauptseite
METAR-TAF:

METAR-TAF

Flughäfen :

Flughafen Katima Mulilo

Katima Mulilo, Namibia

Breite: 17-38-04S, Länge: 024-10-36E, Höhe: 985 m

Beobachtung

Neuester Wetterbericht von vor 38 Minuten, um 21:00 UTC
Wind 2 kt aus Nordost
Temperatur 14°C
Luftfeuchtigkeit 72%
Luftdruck 1023 hPa

METAR: FYKM 022100Z AUTO 04002KT //// // ////// 14/09 Q1023

Zeit: 23:38 (21:38 UTC)

Prognose

Neuester Wetterbericht von vor 1 Stunde und 38 Minuten, um 20:00 UTC
Gültige Prognose vom 02 um 21 UTC bis 03 um 06 UTC
Wind 3 kt aus Ost
Sichtweite 10 km oder mehr
keine Wolken unter 1500 m und keine Kumulonimbus oder Gewitterwolken

TAF: FYKM 022000Z 0221/0306 08003KT CAVOK

Wetterbeobachtungen und Prognosen von mehr als 4000 Flughäfen (METAR und TAF Bericht).

Die verfügbaren Stationen werden durch gelbe und rote Markierungen auf der Karte dargestellt.

Führen Sie die Maus auf sie, um den Namen der Station zu sehen.

Darauf klicken, um die Beobachtung von Wetterbeobachtungen und Prognosen zu sehen.

Um die Karte zu ändern : klicken Sie auf den grünen Tasten mit einem schwarzen Kreuz Zum Vergrößern, auf den grünen Button mit einem Gedankenstrich zu verkleinern, oder auf die grünen Pfeile für benachbarte Karten.


METAR-TAF: